sensor_id;sensor_type;location;lat;lon;timestamp;P1;durP1;ratioP1;P2;durP2;ratioP2
46036;SDS011;31769;49.304;8.428;2023-06-22T00:01:06;10.90;;;8.80;;
46036;SDS011;31769;49.304;8.428;2023-06-22T00:04:07;8.77;;;7.47;;
46036;SDS011;31769;49.304;8.428;2023-06-22T00:07:08;6.95;;;6.35;;
46036;SDS011;31769;49.304;8.428;2023-06-22T00:10:09;6.00;;;5.40;;
46036;SDS011;31769;49.304;8.428;2023-06-22T00:13:10;6.55;;;5.80;;
46036;SDS011;31769;49.304;8.428;2023-06-22T00:16:11;7.50;;;5.78;;
46036;SDS011;31769;49.304;8.428;2023-06-22T00:19:12;8.70;;;6.30;;
46036;SDS011;31769;49.304;8.428;2023-06-22T00:22:13;6.10;;;5.50;;
46036;SDS011;31769;49.304;8.428;2023-06-22T00:25:13;7.03;;;6.07;;
46036;SDS011;31769;49.304;8.428;2023-06-22T00:28:14;9.70;;;6.45;;
46036;SDS011;31769;49.304;8.428;2023-06-22T00:31:15;11.88;;;9.00;;
46036;SDS011;31769;49.304;8.428;2023-06-22T00:34:16;9.18;;;8.38;;
46036;SDS011;31769;49.304;8.428;2023-06-22T00:37:17;13.50;;;9.70;;
46036;SDS011;31769;49.304;8.428;2023-06-22T00:40:18;10.02;;;9.00;;
46036;SDS011;31769;49.304;8.428;2023-06-22T00:43:21;8.90;;;8.00;;
46036;SDS011;31769;49.304;8.428;2023-06-22T00:46:22;9.77;;;7.57;;
46036;SDS011;31769;49.304;8.428;2023-06-22T00:49:24;9.30;;;7.25;;
46036;SDS011;31769;49.304;8.428;2023-06-22T00:52:25;10.40;;;8.27;;
46036;SDS011;31769;49.304;8.428;2023-06-22T00:55:29;11.85;;;8.07;;
46036;SDS011;31769;49.304;8.428;2023-06-22T00:58:30;7.97;;;6.95;;
46036;SDS011;31769;49.304;8.428;2023-06-22T01:01:31;8.82;;;7.53;;
46036;SDS011;31769;49.304;8.428;2023-06-22T01:04:36;8.75;;;7.88;;
46036;SDS011;31769;49.304;8.428;2023-06-22T01:10:55;11.05;;;8.45;;
46036;SDS011;31769;49.304;8.428;2023-06-22T01:14:18;15.35;;;9.13;;
46036;SDS011;31769;49.304;8.428;2023-06-22T01:17:30;10.43;;;9.15;;
46036;SDS011;31769;49.304;8.428;2023-06-22T01:20:33;12.93;;;9.77;;
46036;SDS011;31769;49.304;8.428;2023-06-22T01:30:46;14.68;;;9.77;;
46036;SDS011;31769;49.304;8.428;2023-06-22T01:33:50;11.27;;;10.07;;
46036;SDS011;31769;49.304;8.428;2023-06-22T01:36:53;11.27;;;8.77;;
46036;SDS011;31769;49.304;8.428;2023-06-22T01:39:54;12.70;;;10.55;;
46036;SDS011;31769;49.304;8.428;2023-06-22T01:42:57;11.60;;;9.40;;
46036;SDS011;31769;49.304;8.428;2023-06-22T01:45:59;15.35;;;10.35;;
46036;SDS011;31769;49.304;8.428;2023-06-22T01:49:04;10.93;;;9.50;;
46036;SDS011;31769;49.304;8.428;2023-06-22T01:52:06;9.80;;;8.77;;
46036;SDS011;31769;49.304;8.428;2023-06-22T01:55:07;11.13;;;9.48;;
46036;SDS011;31769;49.304;8.428;2023-06-22T01:58:08;14.15;;;9.88;;
46036;SDS011;31769;49.304;8.428;2023-06-22T02:01:10;10.80;;;9.68;;
46036;SDS011;31769;49.304;8.428;2023-06-22T02:04:19;13.73;;;9.02;;
46036;SDS011;31769;49.304;8.428;2023-06-22T02:07:25;12.02;;;9.98;;
46036;SDS011;31769;49.304;8.428;2023-06-22T02:10:36;11.75;;;9.35;;
46036;SDS011;31769;49.304;8.428;2023-06-22T02:13:42;14.18;;;9.98;;
46036;SDS011;31769;49.304;8.428;2023-06-22T02:16:43;18.38;;;10.15;;
46036;SDS011;31769;49.304;8.428;2023-06-22T02:19:44;14.18;;;10.38;;
46036;SDS011;31769;49.304;8.428;2023-06-22T02:22:45;12.98;;;11.38;;
46036;SDS011;31769;49.304;8.428;2023-06-22T02:25:46;12.45;;;9.93;;
46036;SDS011;31769;49.304;8.428;2023-06-22T02:28:47;13.65;;;10.57;;
46036;SDS011;31769;49.304;8.428;2023-06-22T02:31:51;13.68;;;11.45;;
46036;SDS011;31769;49.304;8.428;2023-06-22T02:34:53;13.85;;;10.95;;
46036;SDS011;31769;49.304;8.428;2023-06-22T02:37:54;13.98;;;11.07;;
46036;SDS011;31769;49.304;8.428;2023-06-22T02:40:55;12.18;;;10.70;;
46036;SDS011;31769;49.304;8.428;2023-06-22T02:43:58;11.25;;;9.82;;
46036;SDS011;31769;49.304;8.428;2023-06-22T02:46:59;13.75;;;10.95;;
46036;SDS011;31769;49.304;8.428;2023-06-22T02:50:00;17.88;;;10.82;;
46036;SDS011;31769;49.304;8.428;2023-06-22T02:53:01;12.52;;;11.23;;
46036;SDS011;31769;49.304;8.428;2023-06-22T02:56:04;13.65;;;10.90;;
46036;SDS011;31769;49.304;8.428;2023-06-22T02:59:07;12.75;;;11.23;;
46036;SDS011;31769;49.304;8.428;2023-06-22T03:02:12;74.53;;;20.63;;
46036;SDS011;31769;49.304;8.428;2023-06-22T03:05:13;16.85;;;12.32;;
46036;SDS011;31769;49.304;8.428;2023-06-22T03:08:14;14.82;;;11.82;;
46036;SDS011;31769;49.304;8.428;2023-06-22T03:11:15;14.63;;;12.30;;
46036;SDS011;31769;49.304;8.428;2023-06-22T03:14:16;17.88;;;12.52;;
46036;SDS011;31769;49.304;8.428;2023-06-22T03:17:17;13.32;;;11.95;;
46036;SDS011;31769;49.304;8.428;2023-06-22T03:20:18;13.93;;;12.40;;
46036;SDS011;31769;49.304;8.428;2023-06-22T03:23:19;14.68;;;13.23;;
46036;SDS011;31769;49.304;8.428;2023-06-22T03:26:20;14.85;;;12.38;;
46036;SDS011;31769;49.304;8.428;2023-06-22T03:29:21;14.73;;;13.05;;
46036;SDS011;31769;49.304;8.428;2023-06-22T03:32:22;19.10;;;13.23;;
46036;SDS011;31769;49.304;8.428;2023-06-22T03:35:22;16.25;;;14.55;;
46036;SDS011;31769;49.304;8.428;2023-06-22T03:38:23;17.80;;;14.07;;
46036;SDS011;31769;49.304;8.428;2023-06-22T03:41:28;13.88;;;12.40;;
46036;SDS011;31769;49.304;8.428;2023-06-22T03:44:29;20.05;;;14.07;;
46036;SDS011;31769;49.304;8.428;2023-06-22T03:47:29;15.43;;;13.25;;
46036;SDS011;31769;49.304;8.428;2023-06-22T03:50:32;15.80;;;13.00;;
46036;SDS011;31769;49.304;8.428;2023-06-22T03:53:32;15.63;;;13.93;;
46036;SDS011;31769;49.304;8.428;2023-06-22T03:56:33;19.08;;;14.50;;
46036;SDS011;31769;49.304;8.428;2023-06-22T03:59:34;14.98;;;13.35;;
46036;SDS011;31769;49.304;8.428;2023-06-22T04:02:34;18.30;;;14.23;;
46036;SDS011;31769;49.304;8.428;2023-06-22T04:05:35;19.80;;;15.20;;
46036;SDS011;31769;49.304;8.428;2023-06-22T04:08:36;16.60;;;14.10;;
46036;SDS011;31769;49.304;8.428;2023-06-22T04:11:36;15.15;;;13.55;;
46036;SDS011;31769;49.304;8.428;2023-06-22T04:14:37;15.85;;;14.25;;
46036;SDS011;31769;49.304;8.428;2023-06-22T04:17:38;14.65;;;13.15;;
46036;SDS011;31769;49.304;8.428;2023-06-22T04:20:38;17.42;;;13.85;;
46036;SDS011;31769;49.304;8.428;2023-06-22T04:23:39;17.00;;;14.30;;
46036;SDS011;31769;49.304;8.428;2023-06-22T04:26:40;17.70;;;14.30;;
46036;SDS011;31769;49.304;8.428;2023-06-22T04:29:42;15.60;;;12.77;;
46036;SDS011;31769;49.304;8.428;2023-06-22T04:32:48;15.75;;;13.43;;
46036;SDS011;31769;49.304;8.428;2023-06-22T04:35:56;17.13;;;14.00;;
46036;SDS011;31769;49.304;8.428;2023-06-22T04:39:07;20.10;;;13.60;;
46036;SDS011;31769;49.304;8.428;2023-06-22T04:42:09;19.58;;;14.55;;
46036;SDS011;31769;49.304;8.428;2023-06-22T04:45:12;16.20;;;13.02;;
46036;SDS011;31769;49.304;8.428;2023-06-22T04:48:13;14.25;;;11.93;;
46036;SDS011;31769;49.304;8.428;2023-06-22T04:51:16;13.35;;;11.77;;
46036;SDS011;31769;49.304;8.428;2023-06-22T04:54:21;22.10;;;13.83;;
46036;SDS011;31769;49.304;8.428;2023-06-22T04:57:22;14.38;;;12.07;;
46036;SDS011;31769;49.304;8.428;2023-06-22T05:00:32;14.38;;;10.88;;
46036;SDS011;31769;49.304;8.428;2023-06-22T05:03:36;12.38;;;11.18;;
46036;SDS011;31769;49.304;8.428;2023-06-22T05:06:36;13.60;;;12.30;;
46036;SDS011;31769;49.304;8.428;2023-06-22T05:09:37;13.93;;;11.43;;
46036;SDS011;31769;49.304;8.428;2023-06-22T05:12:38;13.35;;;11.30;;
46036;SDS011;31769;49.304;8.428;2023-06-22T05:15:40;12.23;;;11.13;;
46036;SDS011;31769;49.304;8.428;2023-06-22T05:18:41;13.63;;;11.68;;
46036;SDS011;31769;49.304;8.428;2023-06-22T05:21:42;13.32;;;11.43;;
46036;SDS011;31769;49.304;8.428;2023-06-22T05:24:42;11.93;;;10.80;;
46036;SDS011;31769;49.304;8.428;2023-06-22T05:27:43;12.55;;;10.85;;
46036;SDS011;31769;49.304;8.428;2023-06-22T05:30:44;11.75;;;10.27;;
46036;SDS011;31769;49.304;8.428;2023-06-22T05:33:45;11.48;;;8.98;;
46036;SDS011;31769;49.304;8.428;2023-06-22T05:36:46;12.98;;;9.52;;
46036;SDS011;31769;49.304;8.428;2023-06-22T05:39:47;10.02;;;8.65;;
46036;SDS011;31769;49.304;8.428;2023-06-22T05:42:48;9.88;;;8.75;;
46036;SDS011;31769;49.304;8.428;2023-06-22T05:45:48;11.00;;;8.52;;
46036;SDS011;31769;49.304;8.428;2023-06-22T05:48:49;10.02;;;8.57;;
46036;SDS011;31769;49.304;8.428;2023-06-22T05:51:50;9.68;;;8.52;;
46036;SDS011;31769;49.304;8.428;2023-06-22T05:54:50;9.20;;;7.78;;
46036;SDS011;31769;49.304;8.428;2023-06-22T05:57:51;10.52;;;7.45;;
46036;SDS011;31769;49.304;8.428;2023-06-22T06:00:52;8.40;;;7.38;;
46036;SDS011;31769;49.304;8.428;2023-06-22T06:03:53;11.57;;;8.18;;
46036;SDS011;31769;49.304;8.428;2023-06-22T06:06:54;7.60;;;6.70;;
46036;SDS011;31769;49.304;8.428;2023-06-22T06:09:54;8.65;;;6.95;;
46036;SDS011;31769;49.304;8.428;2023-06-22T06:12:55;7.40;;;6.35;;
46036;SDS011;31769;49.304;8.428;2023-06-22T06:15:56;8.38;;;7.05;;
46036;SDS011;31769;49.304;8.428;2023-06-22T06:18:57;13.15;;;7.65;;
46036;SDS011;31769;49.304;8.428;2023-06-22T06:21:58;10.82;;;7.43;;
46036;SDS011;31769;49.304;8.428;2023-06-22T06:24:59;7.75;;;6.60;;
46036;SDS011;31769;49.304;8.428;2023-06-22T06:28:00;8.10;;;6.50;;
46036;SDS011;31769;49.304;8.428;2023-06-22T06:31:00;7.65;;;6.43;;
46036;SDS011;31769;49.304;8.428;2023-06-22T06:34:01;8.02;;;6.00;;
46036;SDS011;31769;49.304;8.428;2023-06-22T06:37:02;7.93;;;5.35;;
46036;SDS011;31769;49.304;8.428;2023-06-22T06:40:04;12.73;;;10.88;;
46036;SDS011;31769;49.304;8.428;2023-06-22T06:43:08;8.90;;;8.00;;
46036;SDS011;31769;49.304;8.428;2023-06-22T06:46:09;10.15;;;7.65;;
46036;SDS011;31769;49.304;8.428;2023-06-22T06:49:09;6.68;;;6.07;;
46036;SDS011;31769;49.304;8.428;2023-06-22T06:52:10;7.10;;;6.15;;
46036;SDS011;31769;49.304;8.428;2023-06-22T06:55:11;13.43;;;7.75;;
46036;SDS011;31769;49.304;8.428;2023-06-22T06:58:12;8.27;;;6.53;;
46036;SDS011;31769;49.304;8.428;2023-06-22T07:01:13;8.95;;;6.25;;
46036;SDS011;31769;49.304;8.428;2023-06-22T07:04:14;6.15;;;5.28;;
46036;SDS011;31769;49.304;8.428;2023-06-22T07:07:14;6.75;;;6.03;;
46036;SDS011;31769;49.304;8.428;2023-06-22T07:10:15;7.00;;;5.80;;
46036;SDS011;31769;49.304;8.428;2023-06-22T07:13:16;11.75;;;6.60;;
46036;SDS011;31769;49.304;8.428;2023-06-22T07:16:16;5.93;;;5.35;;
46036;SDS011;31769;49.304;8.428;2023-06-22T07:19:23;8.27;;;6.07;;
46036;SDS011;31769;49.304;8.428;2023-06-22T07:22:25;11.73;;;6.55;;
46036;SDS011;31769;49.304;8.428;2023-06-22T07:25:26;7.00;;;6.18;;
46036;SDS011;31769;49.304;8.428;2023-06-22T07:28:28;9.95;;;6.50;;
46036;SDS011;31769;49.304;8.428;2023-06-22T07:31:31;10.88;;;6.00;;
46036;SDS011;31769;49.304;8.428;2023-06-22T07:34:31;9.18;;;6.10;;
46036;SDS011;31769;49.304;8.428;2023-06-22T07:37:33;9.05;;;6.40;;
46036;SDS011;31769;49.304;8.428;2023-06-22T07:40:35;9.52;;;5.97;;
46036;SDS011;31769;49.304;8.428;2023-06-22T07:43:36;7.85;;;5.38;;
46036;SDS011;31769;49.304;8.428;2023-06-22T07:46:37;8.98;;;5.57;;
46036;SDS011;31769;49.304;8.428;2023-06-22T07:49:37;6.95;;;5.68;;
46036;SDS011;31769;49.304;8.428;2023-06-22T07:52:38;7.72;;;5.85;;
46036;SDS011;31769;49.304;8.428;2023-06-22T07:55:39;10.18;;;6.20;;
46036;SDS011;31769;49.304;8.428;2023-06-22T07:58:39;6.90;;;6.10;;
46036;SDS011;31769;49.304;8.428;2023-06-22T08:01:40;6.88;;;5.90;;
46036;SDS011;31769;49.304;8.428;2023-06-22T08:04:41;7.35;;;5.60;;
46036;SDS011;31769;49.304;8.428;2023-06-22T08:07:41;7.63;;;6.00;;
46036;SDS011;31769;49.304;8.428;2023-06-22T08:10:43;7.53;;;5.78;;
46036;SDS011;31769;49.304;8.428;2023-06-22T08:13:44;7.28;;;6.05;;
46036;SDS011;31769;49.304;8.428;2023-06-22T08:16:44;6.65;;;5.65;;
46036;SDS011;31769;49.304;8.428;2023-06-22T08:19:45;9.93;;;5.35;;
46036;SDS011;31769;49.304;8.428;2023-06-22T08:22:46;7.85;;;5.97;;
46036;SDS011;31769;49.304;8.428;2023-06-22T08:25:47;7.20;;;5.65;;
46036;SDS011;31769;49.304;8.428;2023-06-22T08:28:50;5.35;;;4.85;;
46036;SDS011;31769;49.304;8.428;2023-06-22T08:31:50;6.43;;;5.25;;
46036;SDS011;31769;49.304;8.428;2023-06-22T08:34:51;9.45;;;5.03;;
46036;SDS011;31769;49.304;8.428;2023-06-22T08:37:56;6.15;;;4.35;;
46036;SDS011;31769;49.304;8.428;2023-06-22T08:41:02;8.55;;;5.53;;
46036;SDS011;31769;49.304;8.428;2023-06-22T08:44:03;6.18;;;5.10;;
46036;SDS011;31769;49.304;8.428;2023-06-22T08:47:05;8.15;;;4.97;;
46036;SDS011;31769;49.304;8.428;2023-06-22T08:50:07;6.38;;;4.32;;
46036;SDS011;31769;49.304;8.428;2023-06-22T08:53:09;7.00;;;4.60;;
46036;SDS011;31769;49.304;8.428;2023-06-22T08:56:10;8.65;;;4.47;;
46036;SDS011;31769;49.304;8.428;2023-06-22T08:59:11;6.85;;;4.80;;
46036;SDS011;31769;49.304;8.428;2023-06-22T09:02:12;10.70;;;9.60;;
46036;SDS011;31769;49.304;8.428;2023-06-22T09:05:13;17.85;;;14.25;;
46036;SDS011;31769;49.304;8.428;2023-06-22T09:08:14;7.20;;;5.85;;
46036;SDS011;31769;49.304;8.428;2023-06-22T09:11:15;8.05;;;5.68;;
46036;SDS011;31769;49.304;8.428;2023-06-22T09:14:16;7.70;;;6.60;;
46036;SDS011;31769;49.304;8.428;2023-06-22T09:17:17;6.22;;;5.47;;
46036;SDS011;31769;49.304;8.428;2023-06-22T09:20:18;6.05;;;5.03;;
46036;SDS011;31769;49.304;8.428;2023-06-22T09:23:19;6.15;;;5.53;;
46036;SDS011;31769;49.304;8.428;2023-06-22T09:26:20;10.27;;;5.75;;
46036;SDS011;31769;49.304;8.428;2023-06-22T09:29:21;12.50;;;11.23;;
46036;SDS011;31769;49.304;8.428;2023-06-22T09:32:22;6.72;;;5.78;;
46036;SDS011;31769;49.304;8.428;2023-06-22T09:35:23;7.20;;;5.30;;
46036;SDS011;31769;49.304;8.428;2023-06-22T09:38:24;5.60;;;4.78;;
46036;SDS011;31769;49.304;8.428;2023-06-22T09:41:25;7.93;;;5.10;;
46036;SDS011;31769;49.304;8.428;2023-06-22T09:44:26;5.75;;;4.93;;
46036;SDS011;31769;49.304;8.428;2023-06-22T09:47:29;6.05;;;4.95;;
46036;SDS011;31769;49.304;8.428;2023-06-22T09:50:30;5.70;;;4.95;;
46036;SDS011;31769;49.304;8.428;2023-06-22T09:53:30;10.07;;;7.95;;
46036;SDS011;31769;49.304;8.428;2023-06-22T09:56:31;8.60;;;4.93;;
46036;SDS011;31769;49.304;8.428;2023-06-22T09:59:32;7.53;;;5.15;;
46036;SDS011;31769;49.304;8.428;2023-06-22T10:02:33;11.57;;;5.45;;
46036;SDS011;31769;49.304;8.428;2023-06-22T10:05:34;8.05;;;4.47;;
46036;SDS011;31769;49.304;8.428;2023-06-22T10:08:35;8.00;;;4.50;;
46036;SDS011;31769;49.304;8.428;2023-06-22T10:11:36;9.57;;;5.10;;
46036;SDS011;31769;49.304;8.428;2023-06-22T10:14:38;5.35;;;4.28;;
46036;SDS011;31769;49.304;8.428;2023-06-22T10:17:39;7.07;;;4.50;;
46036;SDS011;31769;49.304;8.428;2023-06-22T10:20:39;6.25;;;4.82;;
46036;SDS011;31769;49.304;8.428;2023-06-22T10:23:40;10.25;;;4.35;;
46036;SDS011;31769;49.304;8.428;2023-06-22T10:26:41;7.13;;;4.32;;
46036;SDS011;31769;49.304;8.428;2023-06-22T10:29:42;12.18;;;4.70;;
46036;SDS011;31769;49.304;8.428;2023-06-22T10:32:43;7.38;;;4.70;;
46036;SDS011;31769;49.304;8.428;2023-06-22T10:35:44;8.10;;;4.93;;
46036;SDS011;31769;49.304;8.428;2023-06-22T10:38:44;11.13;;;5.57;;
46036;SDS011;31769;49.304;8.428;2023-06-22T10:41:47;8.90;;;4.90;;
46036;SDS011;31769;49.304;8.428;2023-06-22T10:44:47;8.85;;;5.45;;
46036;SDS011;31769;49.304;8.428;2023-06-22T10:47:48;5.47;;;4.65;;
46036;SDS011;31769;49.304;8.428;2023-06-22T10:50:49;11.23;;;4.85;;
46036;SDS011;31769;49.304;8.428;2023-06-22T10:53:50;10.73;;;5.50;;
46036;SDS011;31769;49.304;8.428;2023-06-22T10:56:51;8.02;;;5.20;;
46036;SDS011;31769;49.304;8.428;2023-06-22T10:59:52;11.73;;;5.05;;
46036;SDS011;31769;49.304;8.428;2023-06-22T11:02:53;8.75;;;4.65;;
46036;SDS011;31769;49.304;8.428;2023-06-22T11:05:54;11.43;;;5.03;;
46036;SDS011;31769;49.304;8.428;2023-06-22T11:08:55;8.48;;;4.05;;
46036;SDS011;31769;49.304;8.428;2023-06-22T11:11:56;7.38;;;4.43;;
46036;SDS011;31769;49.304;8.428;2023-06-22T11:14:58;10.07;;;4.80;;
46036;SDS011;31769;49.304;8.428;2023-06-22T11:17:59;13.35;;;4.65;;
46036;SDS011;31769;49.304;8.428;2023-06-22T11:21:00;7.55;;;4.53;;
46036;SDS011;31769;49.304;8.428;2023-06-22T11:24:01;6.53;;;5.15;;
46036;SDS011;31769;49.304;8.428;2023-06-22T11:27:03;7.93;;;4.20;;
46036;SDS011;31769;49.304;8.428;2023-06-22T11:30:04;9.50;;;4.40;;
46036;SDS011;31769;49.304;8.428;2023-06-22T11:33:05;9.25;;;4.65;;
46036;SDS011;31769;49.304;8.428;2023-06-22T11:36:06;6.43;;;4.53;;
46036;SDS011;31769;49.304;8.428;2023-06-22T11:39:08;7.22;;;4.18;;
46036;SDS011;31769;49.304;8.428;2023-06-22T11:42:09;8.68;;;4.30;;
46036;SDS011;31769;49.304;8.428;2023-06-22T11:45:11;7.25;;;3.95;;
46036;SDS011;31769;49.304;8.428;2023-06-22T11:48:12;10.77;;;4.60;;
46036;SDS011;31769;49.304;8.428;2023-06-22T11:51:13;9.90;;;4.28;;
46036;SDS011;31769;49.304;8.428;2023-06-22T11:54:13;10.13;;;3.88;;
46036;SDS011;31769;49.304;8.428;2023-06-22T11:57:14;9.68;;;4.20;;
46036;SDS011;31769;49.304;8.428;2023-06-22T12:00:15;8.60;;;4.18;;
46036;SDS011;31769;49.304;8.428;2023-06-22T12:03:18;11.38;;;4.47;;
46036;SDS011;31769;49.304;8.428;2023-06-22T12:06:19;6.10;;;4.07;;
46036;SDS011;31769;49.304;8.428;2023-06-22T12:09:20;11.05;;;4.13;;
46036;SDS011;31769;49.304;8.428;2023-06-22T12:12:21;7.72;;;3.75;;
46036;SDS011;31769;49.304;8.428;2023-06-22T12:15:21;7.20;;;4.43;;
46036;SDS011;31769;49.304;8.428;2023-06-22T12:18:22;5.20;;;4.28;;
46036;SDS011;31769;49.304;8.428;2023-06-22T12:21:23;8.75;;;4.00;;
46036;SDS011;31769;49.304;8.428;2023-06-22T12:24:23;7.65;;;4.72;;
46036;SDS011;31769;49.304;8.428;2023-06-22T12:27:24;8.57;;;4.35;;
46036;SDS011;31769;49.304;8.428;2023-06-22T12:30:25;4.75;;;3.50;;
46036;SDS011;31769;49.304;8.428;2023-06-22T12:33:26;8.93;;;4.00;;
46036;SDS011;31769;49.304;8.428;2023-06-22T12:36:27;8.10;;;3.80;;
46036;SDS011;31769;49.304;8.428;2023-06-22T12:39:27;11.75;;;3.92;;
46036;SDS011;31769;49.304;8.428;2023-06-22T12:42:28;14.50;;;4.32;;
46036;SDS011;31769;49.304;8.428;2023-06-22T12:45:28;8.65;;;4.18;;
46036;SDS011;31769;49.304;8.428;2023-06-22T12:48:33;9.63;;;3.88;;
46036;SDS011;31769;49.304;8.428;2023-06-22T12:51:39;13.73;;;4.35;;
46036;SDS011;31769;49.304;8.428;2023-06-22T12:54:41;10.73;;;4.00;;
46036;SDS011;31769;49.304;8.428;2023-06-22T12:57:42;11.70;;;4.15;;
46036;SDS011;31769;49.304;8.428;2023-06-22T13:00:42;7.75;;;3.70;;
46036;SDS011;31769;49.304;8.428;2023-06-22T13:03:43;8.32;;;3.55;;
46036;SDS011;31769;49.304;8.428;2023-06-22T13:06:44;9.38;;;3.92;;
46036;SDS011;31769;49.304;8.428;2023-06-22T13:09:47;8.27;;;3.83;;
46036;SDS011;31769;49.304;8.428;2023-06-22T13:12:51;10.60;;;4.03;;
46036;SDS011;31769;49.304;8.428;2023-06-22T13:15:54;10.63;;;3.90;;
46036;SDS011;31769;49.304;8.428;2023-06-22T13:18:55;9.57;;;4.13;;
46036;SDS011;31769;49.304;8.428;2023-06-22T13:21:56;9.88;;;4.28;;
46036;SDS011;31769;49.304;8.428;2023-06-22T13:24:57;8.85;;;3.95;;
46036;SDS011;31769;49.304;8.428;2023-06-22T13:27:58;9.02;;;4.13;;
46036;SDS011;31769;49.304;8.428;2023-06-22T13:30:59;8.50;;;4.30;;
46036;SDS011;31769;49.304;8.428;2023-06-22T13:34:00;9.00;;;4.40;;
46036;SDS011;31769;49.304;8.428;2023-06-22T13:37:00;9.20;;;4.10;;
46036;SDS011;31769;49.304;8.428;2023-06-22T13:40:01;8.85;;;4.25;;
46036;SDS011;31769;49.304;8.428;2023-06-22T13:43:05;5.38;;;3.65;;
46036;SDS011;31769;49.304;8.428;2023-06-22T13:46:06;10.60;;;4.47;;
46036;SDS011;31769;49.304;8.428;2023-06-22T13:49:07;11.23;;;4.32;;
46036;SDS011;31769;49.304;8.428;2023-06-22T13:52:07;9.77;;;4.68;;
46036;SDS011;31769;49.304;8.428;2023-06-22T13:55:10;8.07;;;4.72;;
46036;SDS011;31769;49.304;8.428;2023-06-22T13:58:11;9.80;;;4.82;;
46036;SDS011;31769;49.304;8.428;2023-06-22T14:01:11;11.77;;;4.90;;
46036;SDS011;31769;49.304;8.428;2023-06-22T14:04:12;9.48;;;4.95;;
46036;SDS011;31769;49.304;8.428;2023-06-22T14:07:13;10.68;;;5.25;;
46036;SDS011;31769;49.304;8.428;2023-06-22T14:10:17;9.40;;;5.03;;
46036;SDS011;31769;49.304;8.428;2023-06-22T14:13:18;11.57;;;5.57;;
46036;SDS011;31769;49.304;8.428;2023-06-22T14:16:19;10.38;;;5.72;;
46036;SDS011;31769;49.304;8.428;2023-06-22T14:19:20;13.60;;;5.68;;
46036;SDS011;31769;49.304;8.428;2023-06-22T14:22:21;12.68;;;5.80;;
46036;SDS011;31769;49.304;8.428;2023-06-22T14:25:22;12.20;;;6.05;;
46036;SDS011;31769;49.304;8.428;2023-06-22T14:28:23;12.45;;;6.10;;
46036;SDS011;31769;49.304;8.428;2023-06-22T14:31:24;9.70;;;6.20;;
46036;SDS011;31769;49.304;8.428;2023-06-22T14:34:25;13.20;;;6.03;;
46036;SDS011;31769;49.304;8.428;2023-06-22T14:37:26;15.63;;;6.38;;
46036;SDS011;31769;49.304;8.428;2023-06-22T14:40:26;15.85;;;6.93;;
46036;SDS011;31769;49.304;8.428;2023-06-22T14:43:27;13.38;;;6.63;;
46036;SDS011;31769;49.304;8.428;2023-06-22T14:46:28;14.02;;;6.40;;
46036;SDS011;31769;49.304;8.428;2023-06-22T14:49:29;11.73;;;5.82;;
46036;SDS011;31769;49.304;8.428;2023-06-22T14:52:30;12.77;;;6.70;;
46036;SDS011;31769;49.304;8.428;2023-06-22T14:55:31;17.55;;;6.30;;
46036;SDS011;31769;49.304;8.428;2023-06-22T14:58:32;29.33;;;6.82;;
46036;SDS011;31769;49.304;8.428;2023-06-22T15:01:33;10.52;;;6.13;;
46036;SDS011;31769;49.304;8.428;2023-06-22T15:04:34;14.82;;;6.20;;
46036;SDS011;31769;49.304;8.428;2023-06-22T15:07:36;11.85;;;5.90;;
46036;SDS011;31769;49.304;8.428;2023-06-22T15:10:37;11.30;;;6.03;;
46036;SDS011;31769;49.304;8.428;2023-06-22T15:13:41;11.73;;;5.15;;
46036;SDS011;31769;49.304;8.428;2023-06-22T15:16:42;11.73;;;5.27;;
46036;SDS011;31769;49.304;8.428;2023-06-22T15:19:43;13.20;;;5.10;;
46036;SDS011;31769;49.304;8.428;2023-06-22T15:22:44;10.88;;;5.18;;
46036;SDS011;31769;49.304;8.428;2023-06-22T15:25:45;11.43;;;4.93;;
46036;SDS011;31769;49.304;8.428;2023-06-22T15:28:46;11.68;;;5.10;;
46036;SDS011;31769;49.304;8.428;2023-06-22T15:31:48;13.48;;;5.18;;
46036;SDS011;31769;49.304;8.428;2023-06-22T15:34:48;10.68;;;4.70;;
46036;SDS011;31769;49.304;8.428;2023-06-22T15:37:53;10.77;;;4.53;;
46036;SDS011;31769;49.304;8.428;2023-06-22T15:40:54;11.30;;;4.82;;
46036;SDS011;31769;49.304;8.428;2023-06-22T15:43:55;10.90;;;4.40;;
46036;SDS011;31769;49.304;8.428;2023-06-22T15:46:57;11.20;;;4.40;;
46036;SDS011;31769;49.304;8.428;2023-06-22T15:49:57;9.50;;;3.78;;
46036;SDS011;31769;49.304;8.428;2023-06-22T15:52:58;7.68;;;3.65;;
46036;SDS011;31769;49.304;8.428;2023-06-22T15:55:59;8.57;;;3.40;;
46036;SDS011;31769;49.304;8.428;2023-06-22T15:58:59;11.15;;;3.83;;
46036;SDS011;31769;49.304;8.428;2023-06-22T16:02:01;11.73;;;3.58;;
46036;SDS011;31769;49.304;8.428;2023-06-22T16:05:01;9.80;;;3.20;;
46036;SDS011;31769;49.304;8.428;2023-06-22T16:08:07;12.18;;;4.15;;
46036;SDS011;31769;49.304;8.428;2023-06-22T16:11:11;9.25;;;3.75;;
46036;SDS011;31769;49.304;8.428;2023-06-22T16:14:12;10.45;;;3.92;;
46036;SDS011;31769;49.304;8.428;2023-06-22T16:17:13;13.93;;;4.93;;
46036;SDS011;31769;49.304;8.428;2023-06-22T16:20:13;10.82;;;4.57;;
46036;SDS011;31769;49.304;8.428;2023-06-22T16:23:16;10.45;;;4.57;;
46036;SDS011;31769;49.304;8.428;2023-06-22T16:26:18;14.00;;;4.95;;
46036;SDS011;31769;49.304;8.428;2023-06-22T16:29:19;13.65;;;4.85;;
46036;SDS011;31769;49.304;8.428;2023-06-22T16:32:20;12.70;;;4.93;;
46036;SDS011;31769;49.304;8.428;2023-06-22T16:35:21;10.63;;;4.88;;
46036;SDS011;31769;49.304;8.428;2023-06-22T16:38:22;14.82;;;5.22;;
46036;SDS011;31769;49.304;8.428;2023-06-22T16:41:22;11.80;;;4.78;;
46036;SDS011;31769;49.304;8.428;2023-06-22T16:44:25;11.48;;;4.00;;
46036;SDS011;31769;49.304;8.428;2023-06-22T16:47:26;10.65;;;3.95;;
46036;SDS011;31769;49.304;8.428;2023-06-22T16:50:27;11.57;;;4.45;;
46036;SDS011;31769;49.304;8.428;2023-06-22T16:53:28;8.32;;;3.88;;
46036;SDS011;31769;49.304;8.428;2023-06-22T16:56:30;8.20;;;3.42;;
46036;SDS011;31769;49.304;8.428;2023-06-22T16:59:30;13.32;;;4.05;;
46036;SDS011;31769;49.304;8.428;2023-06-22T17:02:32;11.07;;;3.95;;
46036;SDS011;31769;49.304;8.428;2023-06-22T17:05:35;13.00;;;4.60;;
46036;SDS011;31769;49.304;8.428;2023-06-22T17:08:36;12.52;;;4.25;;
46036;SDS011;31769;49.304;8.428;2023-06-22T17:11:38;13.40;;;4.18;;
46036;SDS011;31769;49.304;8.428;2023-06-22T17:14:40;12.93;;;4.18;;
46036;SDS011;31769;49.304;8.428;2023-06-22T17:17:45;12.48;;;3.35;;
46036;SDS011;31769;49.304;8.428;2023-06-22T17:20:46;10.52;;;3.50;;
46036;SDS011;31769;49.304;8.428;2023-06-22T17:23:47;9.93;;;4.20;;
46036;SDS011;31769;49.304;8.428;2023-06-22T17:26:53;12.77;;;4.30;;
46036;SDS011;31769;49.304;8.428;2023-06-22T17:30:04;11.55;;;4.35;;
46036;SDS011;31769;49.304;8.428;2023-06-22T17:33:13;5.00;;;2.90;;
46036;SDS011;31769;49.304;8.428;2023-06-22T17:36:15;11.15;;;3.13;;
46036;SDS011;31769;49.304;8.428;2023-06-22T17:39:19;16.00;;;2.92;;
46036;SDS011;31769;49.304;8.428;2023-06-22T17:42:22;10.38;;;2.63;;
46036;SDS011;31769;49.304;8.428;2023-06-22T17:45:23;14.13;;;3.00;;
46036;SDS011;31769;49.304;8.428;2023-06-22T17:48:24;16.08;;;3.03;;
46036;SDS011;31769;49.304;8.428;2023-06-22T17:51:25;9.68;;;2.95;;
46036;SDS011;31769;49.304;8.428;2023-06-22T17:54:29;8.82;;;2.63;;
46036;SDS011;31769;49.304;8.428;2023-06-22T17:57:37;7.80;;;2.50;;
46036;SDS011;31769;49.304;8.428;2023-06-22T18:00:40;11.15;;;2.08;;
46036;SDS011;31769;49.304;8.428;2023-06-22T18:03:44;11.40;;;2.28;;
46036;SDS011;31769;49.304;8.428;2023-06-22T18:06:45;10.75;;;2.67;;
46036;SDS011;31769;49.304;8.428;2023-06-22T18:09:47;7.00;;;2.10;;
46036;SDS011;31769;49.304;8.428;2023-06-22T18:12:48;7.70;;;2.30;;